sensor_id;sensor_type;location;lat;lon;timestamp;P1;durP1;ratioP1;P2;durP2;ratioP2
7475;SDS011;3779;49.216;8.650;2024-02-21T04:09:15;4.60;;;2.83;;
7475;SDS011;3779;49.216;8.650;2024-02-21T04:12:01;2.80;;;2.00;;
7475;SDS011;3779;49.216;8.650;2024-02-21T04:14:47;5.93;;;2.50;;
7475;SDS011;3779;49.216;8.650;2024-02-21T04:17:33;3.77;;;2.03;;
7475;SDS011;3779;49.216;8.650;2024-02-21T04:20:19;5.03;;;2.53;;
7475;SDS011;3779;49.216;8.650;2024-02-21T04:23:06;5.67;;;2.67;;
7475;SDS011;3779;49.216;8.650;2024-02-21T04:25:51;8.33;;;2.90;;
7475;SDS011;3779;49.216;8.650;2024-02-21T04:28:37;2.77;;;2.07;;
7475;SDS011;3779;49.216;8.650;2024-02-21T04:31:23;3.20;;;2.17;;
7475;SDS011;3779;49.216;8.650;2024-02-21T04:34:10;5.90;;;2.90;;
7475;SDS011;3779;49.216;8.650;2024-02-21T04:36:55;4.20;;;2.20;;
7475;SDS011;3779;49.216;8.650;2024-02-21T04:39:41;2.33;;;1.63;;
7475;SDS011;3779;49.216;8.650;2024-02-21T04:42:27;3.13;;;2.23;;
7475;SDS011;3779;49.216;8.650;2024-02-21T04:45:13;3.13;;;2.67;;
7475;SDS011;3779;49.216;8.650;2024-02-21T04:47:58;5.00;;;2.53;;
7475;SDS011;3779;49.216;8.650;2024-02-21T04:50:45;2.80;;;1.90;;
7475;SDS011;3779;49.216;8.650;2024-02-21T04:53:30;2.50;;;1.70;;
7475;SDS011;3779;49.216;8.650;2024-02-21T04:56:16;2.10;;;1.53;;
7475;SDS011;3779;49.216;8.650;2024-02-21T04:59:05;4.03;;;2.60;;
7475;SDS011;3779;49.216;8.650;2024-02-21T05:01:51;2.13;;;1.70;;
7475;SDS011;3779;49.216;8.650;2024-02-21T05:04:37;2.43;;;1.90;;
7475;SDS011;3779;49.216;8.650;2024-02-21T05:07:23;2.27;;;1.80;;
7475;SDS011;3779;49.216;8.650;2024-02-21T05:10:10;4.63;;;2.90;;
7475;SDS011;3779;49.216;8.650;2024-02-21T05:12:57;3.50;;;1.97;;
7475;SDS011;3779;49.216;8.650;2024-02-21T05:15:43;5.07;;;2.47;;
7475;SDS011;3779;49.216;8.650;2024-02-21T05:39:00;3.73;;;2.03;;
7475;SDS011;3779;49.216;8.650;2024-02-21T07:18:10;4.43;;;2.20;;
7475;SDS011;3779;49.216;8.650;2024-02-21T07:35:58;5.97;;;2.77;;
7475;SDS011;3779;49.216;8.650;2024-02-21T07:38:44;5.27;;;2.80;;
7475;SDS011;3779;49.216;8.650;2024-02-21T07:41:30;2.77;;;2.00;;
7475;SDS011;3779;49.216;8.650;2024-02-21T08:42:54;5.23;;;2.77;;
7475;SDS011;3779;49.216;8.650;2024-02-21T08:48:35;8.27;;;3.30;;
7475;SDS011;3779;49.216;8.650;2024-02-21T08:51:21;4.90;;;2.87;;
7475;SDS011;3779;49.216;8.650;2024-02-21T08:54:07;7.00;;;2.40;;
7475;SDS011;3779;49.216;8.650;2024-02-21T09:00:30;5.90;;;3.40;;
7475;SDS011;3779;49.216;8.650;2024-02-21T09:03:16;5.63;;;3.00;;
7475;SDS011;3779;49.216;8.650;2024-02-21T09:06:05;5.30;;;2.50;;
7475;SDS011;3779;49.216;8.650;2024-02-21T09:08:51;6.03;;;2.97;;
7475;SDS011;3779;49.216;8.650;2024-02-21T09:11:37;6.63;;;2.90;;
7475;SDS011;3779;49.216;8.650;2024-02-21T09:14:23;3.83;;;2.30;;
7475;SDS011;3779;49.216;8.650;2024-02-21T09:17:09;5.97;;;3.67;;
7475;SDS011;3779;49.216;8.650;2024-02-21T09:19:54;8.67;;;3.67;;
7475;SDS011;3779;49.216;8.650;2024-02-21T09:22:44;7.40;;;3.33;;
7475;SDS011;3779;49.216;8.650;2024-02-21T09:25:29;8.03;;;3.67;;
7475;SDS011;3779;49.216;8.650;2024-02-21T09:28:17;4.43;;;3.17;;
7475;SDS011;3779;49.216;8.650;2024-02-21T09:31:04;6.03;;;3.30;;
7475;SDS011;3779;49.216;8.650;2024-02-21T09:33:52;5.63;;;2.87;;
7475;SDS011;3779;49.216;8.650;2024-02-21T09:36:38;5.43;;;2.93;;
7475;SDS011;3779;49.216;8.650;2024-02-21T09:39:25;6.73;;;2.83;;
7475;SDS011;3779;49.216;8.650;2024-02-21T09:42:11;5.53;;;2.63;;
7475;SDS011;3779;49.216;8.650;2024-02-21T09:44:57;5.27;;;2.90;;
7475;SDS011;3779;49.216;8.650;2024-02-21T09:47:50;5.87;;;2.80;;
7475;SDS011;3779;49.216;8.650;2024-02-21T09:50:40;4.67;;;3.00;;
7475;SDS011;3779;49.216;8.650;2024-02-21T09:53:28;2.90;;;1.90;;
7475;SDS011;3779;49.216;8.650;2024-02-21T09:56:15;3.53;;;2.40;;
7475;SDS011;3779;49.216;8.650;2024-02-21T11:42:38;3.87;;;1.83;;
7475;SDS011;3779;49.216;8.650;2024-02-21T12:18:46;3.00;;;1.30;;
7475;SDS011;3779;49.216;8.650;2024-02-21T12:21:33;3.60;;;1.70;;
7475;SDS011;3779;49.216;8.650;2024-02-21T12:24:22;2.40;;;1.60;;
7475;SDS011;3779;49.216;8.650;2024-02-21T12:27:10;4.47;;;1.73;;
7475;SDS011;3779;49.216;8.650;2024-02-21T12:40:01;1.67;;;1.33;;
7475;SDS011;3779;49.216;8.650;2024-02-21T12:46:24;2.73;;;1.63;;
7475;SDS011;3779;49.216;8.650;2024-02-21T12:49:09;3.67;;;1.73;;
7475;SDS011;3779;49.216;8.650;2024-02-21T12:51:56;2.47;;;1.57;;
7475;SDS011;3779;49.216;8.650;2024-02-21T12:54:42;6.37;;;2.17;;
7475;SDS011;3779;49.216;8.650;2024-02-21T12:57:28;4.53;;;2.10;;
7475;SDS011;3779;49.216;8.650;2024-02-21T13:00:13;5.30;;;1.97;;
7475;SDS011;3779;49.216;8.650;2024-02-21T13:03:00;2.70;;;1.73;;
7475;SDS011;3779;49.216;8.650;2024-02-21T13:05:46;4.13;;;1.33;;
7475;SDS011;3779;49.216;8.650;2024-02-21T13:08:33;2.13;;;1.20;;
7475;SDS011;3779;49.216;8.650;2024-02-21T13:20:01;5.23;;;2.13;;
7475;SDS011;3779;49.216;8.650;2024-02-21T13:26:01;4.17;;;1.90;;
7475;SDS011;3779;49.216;8.650;2024-02-21T13:28:47;5.53;;;2.00;;
7475;SDS011;3779;49.216;8.650;2024-02-21T13:31:33;4.57;;;2.00;;
7475;SDS011;3779;49.216;8.650;2024-02-21T13:34:19;2.27;;;1.40;;
7475;SDS011;3779;49.216;8.650;2024-02-21T13:37:04;1.70;;;1.37;;
7475;SDS011;3779;49.216;8.650;2024-02-21T13:39:52;2.17;;;1.40;;
7475;SDS011;3779;49.216;8.650;2024-02-21T13:42:38;2.93;;;1.67;;
7475;SDS011;3779;49.216;8.650;2024-02-21T13:45:24;3.87;;;1.80;;
7475;SDS011;3779;49.216;8.650;2024-02-21T13:48:10;3.57;;;1.67;;
7475;SDS011;3779;49.216;8.650;2024-02-21T13:50:57;3.00;;;1.80;;
7475;SDS011;3779;49.216;8.650;2024-02-21T13:53:43;4.63;;;1.87;;
7475;SDS011;3779;49.216;8.650;2024-02-21T13:56:29;1.83;;;1.40;;
7475;SDS011;3779;49.216;8.650;2024-02-21T13:59:15;4.47;;;1.93;;
7475;SDS011;3779;49.216;8.650;2024-02-21T14:02:03;2.67;;;1.73;;
7475;SDS011;3779;49.216;8.650;2024-02-21T14:04:49;5.07;;;2.03;;
7475;SDS011;3779;49.216;8.650;2024-02-21T14:07:34;3.70;;;1.93;;
7475;SDS011;3779;49.216;8.650;2024-02-21T14:10:20;4.03;;;1.77;;
7475;SDS011;3779;49.216;8.650;2024-02-21T14:13:07;2.87;;;1.40;;
7475;SDS011;3779;49.216;8.650;2024-02-21T14:15:52;3.43;;;1.60;;
7475;SDS011;3779;49.216;8.650;2024-02-21T14:18:41;2.63;;;1.60;;
7475;SDS011;3779;49.216;8.650;2024-02-21T14:21:27;2.93;;;1.63;;
7475;SDS011;3779;49.216;8.650;2024-02-21T14:24:13;2.83;;;1.90;;
7475;SDS011;3779;49.216;8.650;2024-02-21T14:26:59;4.73;;;1.80;;
7475;SDS011;3779;49.216;8.650;2024-02-21T14:29:45;4.07;;;2.00;;
7475;SDS011;3779;49.216;8.650;2024-02-21T14:32:32;2.90;;;1.50;;
7475;SDS011;3779;49.216;8.650;2024-02-21T14:35:17;3.87;;;1.97;;
7475;SDS011;3779;49.216;8.650;2024-02-21T15:50:28;5.40;;;2.57;;
7475;SDS011;3779;49.216;8.650;2024-02-21T16:16:52;3.90;;;1.90;;
7475;SDS011;3779;49.216;8.650;2024-02-21T16:19:37;5.23;;;2.20;;
7475;SDS011;3779;49.216;8.650;2024-02-21T16:22:23;4.70;;;2.60;;
7475;SDS011;3779;49.216;8.650;2024-02-21T16:25:10;4.23;;;1.57;;
7475;SDS011;3779;49.216;8.650;2024-02-21T16:27:56;4.83;;;2.23;;
7475;SDS011;3779;49.216;8.650;2024-02-21T16:30:42;6.73;;;2.73;;
7475;SDS011;3779;49.216;8.650;2024-02-21T16:33:28;4.30;;;2.70;;
7475;SDS011;3779;49.216;8.650;2024-02-21T16:36:21;2.07;;;1.20;;
7475;SDS011;3779;49.216;8.650;2024-02-21T16:39:10;4.73;;;2.33;;
7475;SDS011;3779;49.216;8.650;2024-02-21T16:42:05;5.47;;;2.33;;
7475;SDS011;3779;49.216;8.650;2024-02-21T16:44:55;6.13;;;3.50;;
7475;SDS011;3779;49.216;8.650;2024-02-21T16:48:11;5.43;;;2.70;;
7475;SDS011;3779;49.216;8.650;2024-02-21T16:51:11;3.70;;;2.40;;
7475;SDS011;3779;49.216;8.650;2024-02-21T16:53:59;4.50;;;1.80;;
7475;SDS011;3779;49.216;8.650;2024-02-21T16:56:53;2.87;;;2.07;;
7475;SDS011;3779;49.216;8.650;2024-02-21T16:59:49;6.83;;;3.60;;
7475;SDS011;3779;49.216;8.650;2024-02-21T17:02:43;9.17;;;3.87;;
7475;SDS011;3779;49.216;8.650;2024-02-21T17:05:29;4.90;;;3.13;;
7475;SDS011;3779;49.216;8.650;2024-02-21T17:08:15;7.57;;;4.10;;
7475;SDS011;3779;49.216;8.650;2024-02-21T17:11:01;7.90;;;4.87;;
7475;SDS011;3779;49.216;8.650;2024-02-21T17:13:46;8.73;;;4.80;;
7475;SDS011;3779;49.216;8.650;2024-02-21T17:16:32;6.63;;;3.23;;
7475;SDS011;3779;49.216;8.650;2024-02-21T17:19:18;10.67;;;4.20;;
7475;SDS011;3779;49.216;8.650;2024-02-21T17:22:05;8.30;;;3.40;;
7475;SDS011;3779;49.216;8.650;2024-02-21T17:24:51;7.57;;;3.93;;
7475;SDS011;3779;49.216;8.650;2024-02-21T17:27:39;5.97;;;3.33;;
7475;SDS011;3779;49.216;8.650;2024-02-21T17:30:25;6.03;;;3.07;;
7475;SDS011;3779;49.216;8.650;2024-02-21T17:33:12;5.10;;;3.43;;
7475;SDS011;3779;49.216;8.650;2024-02-21T17:35:59;6.23;;;3.87;;
7475;SDS011;3779;49.216;8.650;2024-02-21T17:38:47;5.53;;;4.07;;
7475;SDS011;3779;49.216;8.650;2024-02-21T18:07:48;6.10;;;3.17;;
7475;SDS011;3779;49.216;8.650;2024-02-21T18:10:34;5.70;;;3.40;;
7475;SDS011;3779;49.216;8.650;2024-02-21T18:13:23;4.67;;;2.43;;
7475;SDS011;3779;49.216;8.650;2024-02-21T18:16:21;5.55;;;2.90;;
7475;SDS011;3779;49.216;8.650;2024-02-21T18:19:07;4.97;;;2.60;;
7475;SDS011;3779;49.216;8.650;2024-02-21T18:21:55;4.88;;;3.00;;
7475;SDS011;3779;49.216;8.650;2024-02-21T18:27:57;8.10;;;3.30;;
7475;SDS011;3779;49.216;8.650;2024-02-21T18:30:43;3.90;;;2.15;;
7475;SDS011;3779;49.216;8.650;2024-02-21T18:33:29;5.17;;;3.10;;
7475;SDS011;3779;49.216;8.650;2024-02-21T18:39:27;5.63;;;3.05;;
7475;SDS011;3779;49.216;8.650;2024-02-21T18:42:13;7.10;;;3.40;;
7475;SDS011;3779;49.216;8.650;2024-02-21T18:44:59;4.20;;;2.10;;
7475;SDS011;3779;49.216;8.650;2024-02-21T18:47:45;3.23;;;2.33;;
7475;SDS011;3779;49.216;8.650;2024-02-21T18:50:30;4.17;;;2.87;;
7475;SDS011;3779;49.216;8.650;2024-02-21T18:53:16;5.70;;;3.07;;
7475;SDS011;3779;49.216;8.650;2024-02-21T18:56:02;4.13;;;2.77;;
7475;SDS011;3779;49.216;8.650;2024-02-21T18:58:51;3.03;;;2.20;;
7475;SDS011;3779;49.216;8.650;2024-02-21T19:01:36;4.73;;;2.80;;
7475;SDS011;3779;49.216;8.650;2024-02-21T19:04:22;4.60;;;3.03;;
7475;SDS011;3779;49.216;8.650;2024-02-21T19:07:09;7.03;;;3.20;;
7475;SDS011;3779;49.216;8.650;2024-02-21T19:09:55;2.00;;;1.80;;
7475;SDS011;3779;49.216;8.650;2024-02-21T19:12:41;5.80;;;3.13;;
7475;SDS011;3779;49.216;8.650;2024-02-21T19:15:27;7.67;;;3.30;;
7475;SDS011;3779;49.216;8.650;2024-02-21T19:18:14;5.13;;;2.90;;
7475;SDS011;3779;49.216;8.650;2024-02-21T19:21:00;2.10;;;1.90;;
7475;SDS011;3779;49.216;8.650;2024-02-21T19:23:46;6.87;;;2.83;;
7475;SDS011;3779;49.216;8.650;2024-02-21T19:26:32;3.80;;;1.73;;
7475;SDS011;3779;49.216;8.650;2024-02-21T19:29:18;2.13;;;1.60;;
7475;SDS011;3779;49.216;8.650;2024-02-21T19:32:03;5.30;;;2.67;;
7475;SDS011;3779;49.216;8.650;2024-02-21T19:34:49;5.53;;;2.90;;
7475;SDS011;3779;49.216;8.650;2024-02-21T19:37:38;5.22;;;2.65;;
7475;SDS011;3779;49.216;8.650;2024-02-21T19:40:24;3.73;;;1.73;;
7475;SDS011;3779;49.216;8.650;2024-02-21T19:43:11;2.50;;;1.92;;
7475;SDS011;3779;49.216;8.650;2024-02-21T19:45:56;4.10;;;2.43;;
7475;SDS011;3779;49.216;8.650;2024-02-21T19:48:42;5.13;;;2.43;;
7475;SDS011;3779;49.216;8.650;2024-02-21T19:51:28;6.17;;;2.97;;
7475;SDS011;3779;49.216;8.650;2024-02-21T19:54:14;2.33;;;2.03;;
7475;SDS011;3779;49.216;8.650;2024-02-21T19:57:03;6.50;;;2.77;;
7475;SDS011;3779;49.216;8.650;2024-02-21T21:11:15;4.00;;;2.37;;
7475;SDS011;3779;49.216;8.650;2024-02-21T21:14:01;2.90;;;2.30;;
7475;SDS011;3779;49.216;8.650;2024-02-21T21:16:50;4.63;;;2.13;;
7475;SDS011;3779;49.216;8.650;2024-02-21T21:19:36;4.00;;;2.60;;
7475;SDS011;3779;49.216;8.650;2024-02-21T21:22:24;3.43;;;2.47;;
7475;SDS011;3779;49.216;8.650;2024-02-21T21:25:11;4.50;;;2.57;;
7475;SDS011;3779;49.216;8.650;2024-02-21T21:27:57;3.23;;;2.53;;
7475;SDS011;3779;49.216;8.650;2024-02-21T21:30:43;2.10;;;1.80;;
7475;SDS011;3779;49.216;8.650;2024-02-21T21:33:30;4.23;;;1.90;;
7475;SDS011;3779;49.216;8.650;2024-02-21T21:36:16;2.60;;;2.30;;
7475;SDS011;3779;49.216;8.650;2024-02-21T21:39:02;3.50;;;2.00;;
7475;SDS011;3779;49.216;8.650;2024-02-21T21:41:50;2.00;;;1.70;;
7475;SDS011;3779;49.216;8.650;2024-02-21T21:44:36;1.90;;;1.70;;
7475;SDS011;3779;49.216;8.650;2024-02-21T21:47:21;2.70;;;2.30;;
7475;SDS011;3779;49.216;8.650;2024-02-21T21:50:07;2.37;;;2.00;;
7475;SDS011;3779;49.216;8.650;2024-02-21T21:52:54;3.53;;;2.10;;
7475;SDS011;3779;49.216;8.650;2024-02-21T21:55:40;3.63;;;2.33;;
7475;SDS011;3779;49.216;8.650;2024-02-21T21:58:25;2.97;;;1.90;;
7475;SDS011;3779;49.216;8.650;2024-02-21T22:01:12;2.57;;;2.00;;
7475;SDS011;3779;49.216;8.650;2024-02-21T22:04:01;3.83;;;2.20;;
7475;SDS011;3779;49.216;8.650;2024-02-21T22:06:47;3.07;;;2.07;;
7475;SDS011;3779;49.216;8.650;2024-02-21T22:09:34;2.57;;;1.97;;
7475;SDS011;3779;49.216;8.650;2024-02-21T22:12:20;2.37;;;1.93;;
7475;SDS011;3779;49.216;8.650;2024-02-21T22:15:06;2.47;;;2.00;;
7475;SDS011;3779;49.216;8.650;2024-02-21T22:17:54;6.77;;;2.27;;
7475;SDS011;3779;49.216;8.650;2024-02-21T22:20:39;3.57;;;1.80;;
7475;SDS011;3779;49.216;8.650;2024-02-21T22:23:26;3.43;;;2.20;;
7475;SDS011;3779;49.216;8.650;2024-02-21T22:26:15;3.13;;;1.97;;
7475;SDS011;3779;49.216;8.650;2024-02-21T22:29:04;3.05;;;2.08;;
7475;SDS011;3779;49.216;8.650;2024-02-21T22:31:50;3.00;;;2.23;;
7475;SDS011;3779;49.216;8.650;2024-02-21T22:34:36;2.93;;;2.50;;
7475;SDS011;3779;49.216;8.650;2024-02-21T22:37:22;2.65;;;2.25;;
7475;SDS011;3779;49.216;8.650;2024-02-21T22:40:08;2.20;;;2.00;;
7475;SDS011;3779;49.216;8.650;2024-02-21T22:42:54;2.50;;;2.00;;
7475;SDS011;3779;49.216;8.650;2024-02-21T22:45:40;3.57;;;1.87;;
7475;SDS011;3779;49.216;8.650;2024-02-21T22:48:25;2.07;;;1.83;;
7475;SDS011;3779;49.216;8.650;2024-02-21T22:51:11;2.10;;;1.90;;
7475;SDS011;3779;49.216;8.650;2024-02-21T22:53:57;2.17;;;1.97;;
7475;SDS011;3779;49.216;8.650;2024-02-21T22:56:43;2.60;;;1.80;;
7475;SDS011;3779;49.216;8.650;2024-02-21T22:59:29;3.23;;;2.00;;
7475;SDS011;3779;49.216;8.650;2024-02-21T23:02:15;2.57;;;2.30;;
7475;SDS011;3779;49.216;8.650;2024-02-21T23:05:01;2.47;;;1.90;;
7475;SDS011;3779;49.216;8.650;2024-02-21T23:08:07;3.47;;;2.13;;
7475;SDS011;3779;49.216;8.650;2024-02-21T23:10:54;2.37;;;1.80;;
7475;SDS011;3779;49.216;8.650;2024-02-21T23:13:40;3.93;;;1.70;;
7475;SDS011;3779;49.216;8.650;2024-02-21T23:16:26;2.37;;;1.90;;
7475;SDS011;3779;49.216;8.650;2024-02-21T23:19:12;2.67;;;2.00;;
7475;SDS011;3779;49.216;8.650;2024-02-21T23:21:59;2.33;;;1.73;;
7475;SDS011;3779;49.216;8.650;2024-02-21T23:24:45;2.60;;;2.20;;
7475;SDS011;3779;49.216;8.650;2024-02-21T23:27:32;2.17;;;1.97;;
7475;SDS011;3779;49.216;8.650;2024-02-21T23:30:18;2.47;;;2.10;;
7475;SDS011;3779;49.216;8.650;2024-02-21T23:33:04;2.60;;;2.10;;
7475;SDS011;3779;49.216;8.650;2024-02-21T23:35:52;2.40;;;1.70;;
7475;SDS011;3779;49.216;8.650;2024-02-21T23:38:38;4.03;;;2.27;;
7475;SDS011;3779;49.216;8.650;2024-02-21T23:41:24;3.40;;;2.17;;
7475;SDS011;3779;49.216;8.650;2024-02-21T23:44:10;2.20;;;2.00;;
7475;SDS011;3779;49.216;8.650;2024-02-21T23:46:56;2.10;;;1.60;;
7475;SDS011;3779;49.216;8.650;2024-02-21T23:49:43;2.27;;;2.03;;
7475;SDS011;3779;49.216;8.650;2024-02-21T23:52:30;2.93;;;2.03;;
7475;SDS011;3779;49.216;8.650;2024-02-21T23:55:16;2.50;;;1.87;;
7475;SDS011;3779;49.216;8.650;2024-02-21T23:58:02;1.97;;;1.80;;
